createdAt,value
2023-05-20T19:44:26.376Z,4.90
2023-05-20T19:45:26.306Z,5.50
2023-05-20T19:46:26.292Z,6.00
2023-05-20T19:47:26.307Z,6.40
2023-05-20T19:48:26.162Z,6.40
2023-05-20T19:49:26.117Z,6.30
2023-05-20T19:50:26.069Z,6.50
2023-05-20T19:51:26.025Z,6.80
2023-05-20T19:52:25.983Z,6.70
2023-05-20T19:53:25.943Z,6.60
2023-05-20T19:54:25.899Z,6.70
2023-05-20T19:55:25.848Z,7.70
2023-05-20T19:56:25.809Z,7.00
2023-05-20T19:57:25.763Z,6.90
2023-05-20T19:58:25.923Z,6.60
2023-05-20T19:59:25.675Z,6.30
2023-05-20T20:00:25.668Z,7.30
2023-05-20T20:01:25.668Z,6.70
2023-05-20T20:02:25.585Z,6.80
2023-05-20T20:03:25.514Z,7.10
2023-05-20T20:04:25.488Z,6.70
2023-05-20T20:05:25.456Z,7.30
2023-05-20T20:06:25.378Z,6.20
2023-05-20T20:07:25.333Z,7.10
2023-05-20T20:08:25.328Z,6.90
2023-05-20T20:09:25.257Z,6.60
2023-05-20T20:10:25.218Z,6.70
2023-05-20T20:11:25.165Z,6.90
2023-05-20T20:12:25.127Z,6.90
2023-05-20T20:13:25.096Z,7.30
2023-05-20T20:14:25.044Z,6.80
2023-05-20T20:15:25.027Z,7.00
2023-05-20T20:16:25.027Z,6.90
2023-05-20T20:17:24.955Z,7.10
2023-05-20T20:18:24.877Z,7.30
2023-05-20T20:19:24.860Z,7.20
2023-05-20T20:20:24.789Z,6.90
2023-05-20T20:21:24.750Z,7.00
2023-05-20T20:22:24.712Z,7.00
2023-05-20T20:23:24.670Z,6.70
2023-05-20T20:24:24.640Z,6.80
2023-05-20T20:25:24.585Z,6.90
2023-05-20T20:26:24.546Z,6.90
2023-05-20T20:27:24.497Z,7.10
2023-05-20T20:28:24.460Z,6.60
2023-05-20T20:29:24.413Z,7.00
2023-05-20T20:30:24.415Z,7.10
2023-05-20T20:31:24.333Z,6.90
2023-05-20T20:32:24.444Z,6.80
2023-05-20T20:33:24.279Z,7.40
2023-05-20T20:34:24.219Z,6.50
2023-05-20T20:35:24.166Z,7.20
2023-05-20T20:36:24.122Z,7.10
2023-05-20T20:37:24.077Z,7.00
2023-05-20T20:38:24.037Z,7.10
2023-05-20T20:39:23.995Z,7.20
2023-05-20T20:40:23.951Z,7.40
2023-05-20T20:41:23.910Z,7.10
2023-05-20T20:42:23.874Z,7.20
2023-05-20T20:43:23.833Z,6.90
2023-05-20T20:44:23.787Z,7.20
2023-05-20T20:45:23.753Z,7.40
2023-05-20T20:46:23.747Z,7.90
2023-05-20T20:47:23.723Z,6.80
2023-05-20T20:48:23.639Z,7.50
2023-05-20T20:49:25.239Z,7.10
2023-05-20T20:50:23.541Z,7.40
2023-05-20T20:51:23.497Z,7.50
2023-05-20T20:52:23.478Z,7.30
2023-05-20T20:53:23.449Z,7.00
2023-05-20T20:54:23.415Z,7.10
2023-05-20T20:55:23.347Z,7.60
2023-05-20T20:56:23.297Z,7.40
2023-05-20T20:57:23.250Z,7.30
2023-05-20T20:58:23.204Z,7.50
2023-05-20T20:59:23.162Z,7.70
2023-05-20T21:00:23.123Z,7.10
2023-05-20T21:01:23.123Z,7.30
2023-05-20T21:02:23.053Z,7.70
2023-05-20T21:03:22.996Z,8.00
2023-05-20T21:04:22.988Z,7.80
2023-05-20T21:05:22.911Z,7.30
2023-05-20T21:06:22.902Z,8.10
2023-05-20T21:07:22.828Z,7.60
2023-05-20T21:08:22.794Z,8.20
2023-05-20T21:09:22.739Z,8.10
2023-05-20T21:10:22.698Z,7.90
2023-05-20T21:11:22.667Z,8.60
2023-05-20T21:12:22.625Z,8.20
2023-05-20T21:13:22.572Z,8.20
2023-05-20T21:14:22.534Z,7.90
2023-05-20T21:15:22.490Z,8.20
2023-05-20T21:16:22.512Z,8.60
2023-05-20T21:17:22.443Z,8.30
2023-05-20T21:18:22.369Z,8.30
2023-05-20T21:19:22.397Z,8.20
2023-05-20T21:20:22.307Z,8.10
2023-05-20T21:21:22.254Z,8.60
2023-05-20T21:22:22.210Z,8.10
2023-05-20T21:23:22.163Z,8.00
2023-05-20T21:24:22.120Z,7.60
2023-05-20T21:25:22.088Z,8.00
2023-05-20T21:26:22.028Z,8.50
2023-05-20T21:27:22.035Z,7.90
2023-05-20T21:28:21.960Z,8.40
2023-05-20T21:29:21.902Z,7.90
2023-05-20T21:30:21.872Z,8.60
2023-05-20T21:31:21.843Z,8.10
2023-05-20T21:32:21.780Z,8.60
2023-05-20T21:33:21.745Z,8.70
2023-05-20T21:34:21.693Z,9.00
2023-05-20T21:35:21.657Z,8.60
2023-05-20T21:36:21.635Z,8.60
2023-05-20T21:37:21.575Z,8.60
